createdAt,value
2019-03-30T00:00:51.972Z,27.30
2019-03-30T00:03:18.541Z,31.27
2019-03-30T00:05:45.237Z,32.23
2019-03-30T00:08:11.811Z,35.53
2019-03-30T00:10:38.570Z,34.73
2019-03-30T00:13:05.175Z,34.50
2019-03-30T00:15:31.851Z,38.33
2019-03-30T00:17:58.646Z,34.27
2019-03-30T00:20:25.196Z,29.47
2019-03-30T00:22:52.885Z,28.23
2019-03-30T00:25:19.565Z,32.87
2019-03-30T00:27:46.246Z,37.73
2019-03-30T00:30:13.274Z,47.90
2019-03-30T00:32:39.953Z,56.47
2019-03-30T00:35:06.955Z,64.87
2019-03-30T00:37:35.035Z,57.60
2019-03-30T00:40:02.632Z,64.57
2019-03-30T00:42:29.236Z,54.33
2019-03-30T00:44:55.833Z,33.20
2019-03-30T00:47:22.399Z,32.13
2019-03-30T00:49:50.195Z,37.10
2019-03-30T00:52:17.203Z,29.13
2019-03-30T00:54:43.878Z,23.20
2019-03-30T00:57:10.528Z,23.20
2019-03-30T00:59:37.360Z,25.07
2019-03-30T01:02:04.151Z,26.50
2019-03-30T01:04:30.994Z,27.10
2019-03-30T01:06:57.628Z,26.70
2019-03-30T01:09:24.291Z,29.07
2019-03-30T01:11:51.069Z,33.33
2019-03-30T01:14:18.266Z,27.47
2019-03-30T01:16:45.015Z,24.63
2019-03-30T01:19:11.673Z,21.13
2019-03-30T01:21:38.310Z,25.50
2019-03-30T01:24:06.954Z,26.17
2019-03-30T01:26:33.523Z,25.23
2019-03-30T01:29:00.103Z,22.07
2019-03-30T01:31:26.757Z,28.50
2019-03-30T01:33:53.367Z,21.63
2019-03-30T01:36:20.117Z,28.73
2019-03-30T01:38:47.189Z,25.73
2019-03-30T01:41:13.845Z,26.20
2019-03-30T01:43:40.531Z,24.77
2019-03-30T01:46:07.066Z,19.20
2019-03-30T01:48:33.664Z,20.57
2019-03-30T01:51:00.276Z,24.43
2019-03-30T01:53:26.866Z,22.90
2019-03-30T01:55:53.523Z,19.67
2019-03-30T01:58:20.163Z,22.67
2019-03-30T02:00:46.867Z,21.93
2019-03-30T02:03:13.710Z,23.63
2019-03-30T02:05:40.419Z,22.90
2019-03-30T02:08:07.013Z,19.77
2019-03-30T02:10:38.800Z,22.13
2019-03-30T02:13:05.638Z,25.07
2019-03-30T02:15:32.419Z,19.03
2019-03-30T02:17:59.044Z,22.67
2019-03-30T02:20:31.359Z,23.17
2019-03-30T02:22:57.947Z,22.43
2019-03-30T02:25:24.621Z,20.23
2019-03-30T02:28:47.526Z,25.87
2019-03-30T02:31:15.393Z,24.63
2019-03-30T02:33:41.986Z,22.07
2019-03-30T02:36:08.799Z,24.60
2019-03-30T02:38:35.450Z,23.57
2019-03-30T02:41:02.246Z,21.10
2019-03-30T02:43:28.837Z,22.90
2019-03-30T02:45:55.395Z,21.00
2019-03-30T02:48:21.944Z,19.33
2019-03-30T02:50:50.617Z,21.50
2019-03-30T02:53:17.061Z,18.40
2019-03-30T02:55:43.785Z,21.20
2019-03-30T02:58:10.397Z,17.70
2019-03-30T03:00:37.392Z,17.80
2019-03-30T03:03:04.133Z,21.03
2019-03-30T03:05:30.791Z,17.57
2019-03-30T03:07:57.546Z,20.57
2019-03-30T03:10:24.471Z,20.23
2019-03-30T03:12:52.240Z,17.87
2019-03-30T03:15:19.001Z,21.00
2019-03-30T03:17:46.236Z,18.93
2019-03-30T03:20:13.218Z,18.47
2019-03-30T03:22:39.829Z,18.40
2019-03-30T03:25:07.532Z,19.00
2019-03-30T03:27:34.377Z,20.53
2019-03-30T03:30:01.470Z,16.43
2019-03-30T03:32:28.442Z,20.50
2019-03-30T03:34:55.197Z,22.20
2019-03-30T03:37:21.797Z,19.83
2019-03-30T03:39:48.409Z,18.87
2019-03-30T03:42:15.005Z,17.87
2019-03-30T03:44:41.617Z,19.60
2019-03-30T03:47:08.301Z,17.27
2019-03-30T03:49:34.841Z,21.87
2019-03-30T03:52:02.430Z,18.80
2019-03-30T03:54:31.692Z,19.17
2019-03-30T03:56:58.985Z,18.93
2019-03-30T03:59:26.869Z,18.70
2019-03-30T04:01:55.288Z,18.77
2019-03-30T04:04:25.946Z,18.97
2019-03-30T04:06:58.206Z,21.03
2019-03-30T04:09:29.123Z,21.27
2019-03-30T04:11:57.780Z,17.87
2019-03-30T04:14:25.278Z,18.10
2019-03-30T04:16:51.937Z,19.27
2019-03-30T04:19:18.710Z,21.27
2019-03-30T04:21:45.426Z,17.90
2019-03-30T04:24:12.042Z,16.83
2019-03-30T04:26:39.808Z,18.83
2019-03-30T04:29:06.384Z,18.80
2019-03-30T04:31:33.142Z,18.60
2019-03-30T04:34:03.125Z,15.70
2019-03-30T04:36:29.766Z,17.80
2019-03-30T04:38:56.359Z,17.70
2019-03-30T04:41:23.005Z,20.80
2019-03-30T04:43:49.585Z,20.27
2019-03-30T04:46:16.196Z,17.47
2019-03-30T04:48:42.756Z,15.97
2019-03-30T04:51:09.365Z,19.27
2019-03-30T04:53:35.993Z,16.40
2019-03-30T04:56:03.177Z,17.50
2019-03-30T04:58:29.732Z,17.03
2019-03-30T05:00:56.351Z,16.87
2019-03-30T05:03:23.008Z,22.20
2019-03-30T05:05:49.661Z,19.90
2019-03-30T05:08:17.391Z,17.67
2019-03-30T05:10:44.008Z,15.97
2019-03-30T05:13:10.573Z,21.80
2019-03-30T05:15:37.284Z,16.60
2019-03-30T05:18:03.947Z,17.57
2019-03-30T05:20:30.609Z,18.43
2019-03-30T05:22:58.272Z,21.27
2019-03-30T05:25:24.873Z,18.17
2019-03-30T05:27:51.640Z,16.20
2019-03-30T05:30:18.248Z,15.37
2019-03-30T05:32:45.043Z,19.60
2019-03-30T05:35:11.848Z,18.17
2019-03-30T05:37:38.509Z,17.57
2019-03-30T05:40:06.804Z,16.57
2019-03-30T05:42:33.441Z,17.50
2019-03-30T05:45:00.053Z,17.97
2019-03-30T05:47:27.813Z,19.67
2019-03-30T05:49:54.391Z,23.57
2019-03-30T05:52:26.820Z,16.40
2019-03-30T05:54:49.510Z,20.67
2019-03-30T05:57:16.121Z,15.50
2019-03-30T05:59:42.669Z,21.47
2019-03-30T06:02:09.227Z,19.73
2019-03-30T06:04:35.945Z,18.07
2019-03-30T06:07:02.865Z,18.57
2019-03-30T06:09:29.454Z,17.53
2019-03-30T06:11:56.071Z,15.50
2019-03-30T06:14:22.648Z,18.70
2019-03-30T06:16:49.195Z,32.07
2019-03-30T06:19:15.766Z,16.57
2019-03-30T06:21:42.347Z,17.97
2019-03-30T06:24:09.573Z,31.63
2019-03-30T06:26:36.291Z,17.03
2019-03-30T06:29:03.093Z,20.57
2019-03-30T06:31:29.838Z,19.17
2019-03-30T06:33:56.652Z,15.03
2019-03-30T06:36:23.494Z,13.47
2019-03-30T06:38:50.438Z,18.17
2019-03-30T06:41:16.999Z,15.30
2019-03-30T06:43:43.562Z,19.90
2019-03-30T06:46:10.970Z,15.43
2019-03-30T06:48:37.630Z,20.30
2019-03-30T06:51:04.316Z,16.87
2019-03-30T06:53:30.966Z,17.67
2019-03-30T06:55:57.532Z,18.90
2019-03-30T06:58:24.169Z,19.20
2019-03-30T07:00:52.442Z,17.30
2019-03-30T07:03:19.341Z,18.77
2019-03-30T07:05:46.200Z,17.20
2019-03-30T07:08:15.078Z,21.63
2019-03-30T07:10:44.926Z,21.57
2019-03-30T07:13:13.348Z,19.30
2019-03-30T07:15:44.973Z,20.33
2019-03-30T07:18:13.711Z,16.90
2019-03-30T07:20:40.442Z,15.70
2019-03-30T07:23:12.358Z,24.43
2019-03-30T07:25:35.791Z,19.23
2019-03-30T07:28:02.721Z,14.67
2019-03-30T07:30:29.423Z,16.57
2019-03-30T07:32:56.373Z,18.23
2019-03-30T07:35:24.197Z,16.77
2019-03-30T07:37:51.044Z,19.83
2019-03-30T07:40:17.916Z,20.00
2019-03-30T07:42:46.363Z,19.40
2019-03-30T07:45:13.639Z,17.00
2019-03-30T07:47:40.706Z,20.50
2019-03-30T07:50:10.033Z,19.43
2019-03-30T07:52:37.482Z,18.13
2019-03-30T07:55:05.448Z,17.53
2019-03-30T07:57:35.891Z,18.20
2019-03-30T08:00:07.197Z,18.53
2019-03-30T08:02:33.856Z,17.80
2019-03-30T08:05:04.696Z,15.87
2019-03-30T08:07:31.605Z,18.97
2019-03-30T08:09:58.172Z,15.53
2019-03-30T08:12:26.031Z,16.80
2019-03-30T08:14:52.637Z,21.37
2019-03-30T08:17:19.552Z,18.40
2019-03-30T08:19:46.228Z,19.50
2019-03-30T08:22:12.995Z,15.47
2019-03-30T08:24:39.565Z,17.87
2019-03-30T08:27:06.158Z,18.77
2019-03-30T08:29:32.842Z,20.13
2019-03-30T08:31:59.428Z,19.73
2019-03-30T08:34:26.100Z,19.70
2019-03-30T08:36:52.712Z,21.70
2019-03-30T08:39:19.266Z,14.83
2019-03-30T08:41:45.874Z,18.47
2019-03-30T08:44:12.418Z,20.97
2019-03-30T08:46:39.005Z,17.73
2019-03-30T08:49:05.801Z,20.13
2019-03-30T08:51:32.462Z,17.60
2019-03-30T08:54:00.367Z,17.83
2019-03-30T08:56:28.122Z,15.60
2019-03-30T08:58:55.081Z,19.53
2019-03-30T09:01:21.710Z,18.03
2019-03-30T09:03:49.406Z,18.33
2019-03-30T09:06:16.082Z,18.80
2019-03-30T09:08:43.143Z,20.70
2019-03-30T09:11:09.712Z,23.87
2019-03-30T09:13:37.702Z,21.37
2019-03-30T09:16:04.498Z,21.30
2019-03-30T09:18:31.207Z,17.40
2019-03-30T09:20:57.839Z,17.90
2019-03-30T09:23:24.460Z,16.10
2019-03-30T09:25:51.160Z,20.53
2019-03-30T09:28:17.734Z,21.67
2019-03-30T09:30:44.622Z,23.50
2019-03-30T09:33:11.360Z,22.30
2019-03-30T09:35:38.214Z,21.43
2019-03-30T09:38:04.964Z,22.70
2019-03-30T09:40:33.655Z,19.67
2019-03-30T09:43:00.344Z,19.17
2019-03-30T09:45:26.964Z,19.53
2019-03-30T09:47:54.777Z,21.30
2019-03-30T09:50:21.578Z,30.90
2019-03-30T09:52:48.387Z,21.87
2019-03-30T09:55:15.343Z,28.17
2019-03-30T09:57:45.781Z,23.70
2019-03-30T10:00:12.790Z,26.33
2019-03-30T10:02:39.562Z,22.37
2019-03-30T10:05:08.916Z,25.77
2019-03-30T10:07:35.889Z,31.53
2019-03-30T10:12:55.850Z,28.23
2019-03-30T10:15:24.342Z,23.53
2019-03-30T10:17:51.016Z,23.10
2019-03-30T10:20:25.394Z,21.23
2019-03-30T10:22:52.184Z,20.50
2019-03-30T10:25:18.813Z,21.27
2019-03-30T10:27:45.913Z,20.90
2019-03-30T10:32:54.620Z,18.07
2019-03-30T10:35:21.414Z,19.70
2019-03-30T10:37:50.263Z,20.30
2019-03-30T10:40:20.732Z,19.97
2019-03-30T10:42:46.283Z,20.80
2019-03-30T10:45:13.307Z,22.30
2019-03-30T10:47:40.101Z,19.97
2019-03-30T10:50:09.096Z,17.93
2019-03-30T10:52:37.079Z,20.30
2019-03-30T10:55:05.633Z,15.60
2019-03-30T10:57:32.390Z,16.00
2019-03-30T11:00:00.385Z,18.00
2019-03-30T11:02:27.944Z,17.77
2019-03-30T11:04:55.741Z,19.20
2019-03-30T11:07:23.528Z,19.03
2019-03-30T11:09:50.644Z,19.77
2019-03-30T11:12:17.924Z,24.10
2019-03-30T11:14:44.909Z,21.17
2019-03-30T11:17:11.606Z,18.47
2019-03-30T11:19:39.071Z,18.93
2019-03-30T11:22:06.130Z,21.83
2019-03-30T11:24:32.730Z,18.23
2019-03-30T11:26:59.360Z,18.20
2019-03-30T11:29:26.128Z,20.30
2019-03-30T11:31:52.719Z,19.10
2019-03-30T11:35:15.807Z,19.63
2019-03-30T11:37:42.445Z,18.77
2019-03-30T11:40:24.302Z,21.30
2019-03-30T11:42:50.901Z,23.93
2019-03-30T11:45:17.815Z,22.33
2019-03-30T11:47:44.585Z,20.83
2019-03-30T11:50:11.492Z,20.73
2019-03-30T11:52:38.112Z,21.60
2019-03-30T11:55:06.044Z,18.07
2019-03-30T11:57:34.885Z,19.23
2019-03-30T12:00:58.118Z,23.67
2019-03-30T12:03:25.038Z,19.43
2019-03-30T12:05:51.957Z,21.90
2019-03-30T12:08:18.532Z,18.83
2019-03-30T12:10:45.180Z,18.03
2019-03-30T12:14:08.536Z,19.90
2019-03-30T12:16:38.068Z,19.67
2019-03-30T12:19:04.814Z,18.40
2019-03-30T12:21:31.414Z,21.90
2019-03-30T12:23:58.312Z,19.73
2019-03-30T12:26:25.461Z,17.83
2019-03-30T12:28:52.120Z,17.60
2019-03-30T12:31:18.867Z,19.57
2019-03-30T12:33:48.566Z,18.00
2019-03-30T12:36:17.430Z,21.90
2019-03-30T12:38:44.338Z,19.77
2019-03-30T12:41:12.225Z,21.23
2019-03-30T12:43:54.401Z,20.53
2019-03-30T12:46:21.361Z,17.03
2019-03-30T12:48:48.240Z,17.20
2019-03-30T12:51:14.880Z,16.90
2019-03-30T12:53:50.423Z,14.97
2019-03-30T12:56:15.403Z,25.57
2019-03-30T12:58:53.506Z,24.30
2019-03-30T13:01:21.426Z,27.00
2019-03-30T13:03:48.073Z,17.17
2019-03-30T13:06:14.906Z,22.60
2019-03-30T13:08:41.500Z,19.90
2019-03-30T13:11:08.167Z,20.40
2019-03-30T13:13:34.986Z,14.23
2019-03-30T13:16:01.739Z,17.13
2019-03-30T13:18:28.329Z,16.83
2019-03-30T13:20:54.907Z,15.77
2019-03-30T13:23:21.579Z,17.33
2019-03-30T13:25:48.183Z,17.47
2019-03-30T13:28:14.830Z,18.03
2019-03-30T13:30:41.690Z,17.27
2019-03-30T13:33:08.326Z,18.67
2019-03-30T13:35:34.989Z,17.17
2019-03-30T13:38:01.616Z,17.77
2019-03-30T13:40:28.357Z,17.73
2019-03-30T13:42:54.945Z,17.17
2019-03-30T13:45:21.735Z,17.63
2019-03-30T13:47:48.410Z,21.50
2019-03-30T13:50:15.360Z,20.67
2019-03-30T13:52:41.988Z,19.67
2019-03-30T13:55:09.152Z,20.23
2019-03-30T13:57:37.191Z,19.67
2019-03-30T14:00:07.167Z,17.80
2019-03-30T14:02:34.285Z,24.53
2019-03-30T14:05:02.792Z,16.43
2019-03-30T14:07:29.875Z,18.50
2019-03-30T14:09:57.234Z,17.50
2019-03-30T14:12:24.362Z,16.33
2019-03-30T14:14:51.543Z,19.87
2019-03-30T14:17:20.144Z,18.73
2019-03-30T14:19:48.521Z,18.93
2019-03-30T14:22:15.600Z,25.77
2019-03-30T14:24:42.697Z,18.47
2019-03-30T14:27:09.573Z,18.70
2019-03-30T14:29:36.671Z,18.60
2019-03-30T14:32:04.435Z,29.20
2019-03-30T14:34:31.380Z,22.70
2019-03-30T14:36:58.457Z,17.13
2019-03-30T14:39:25.793Z,19.97
2019-03-30T14:41:54.051Z,24.80
2019-03-30T14:44:24.352Z,21.47
2019-03-30T14:46:55.387Z,44.47
2019-03-30T14:49:23.077Z,19.83
2019-03-30T14:51:51.077Z,22.27
2019-03-30T14:54:19.525Z,38.30
2019-03-30T14:56:47.925Z,31.00
2019-03-30T14:59:16.215Z,25.20
2019-03-30T15:01:44.664Z,25.50
2019-03-30T15:04:14.569Z,23.47
2019-03-30T15:06:45.968Z,24.83
2019-03-30T15:09:14.321Z,21.33
2019-03-30T15:11:43.578Z,33.33
2019-03-30T15:14:14.852Z,27.90
2019-03-30T15:53:45.815Z,30.33
2019-03-30T15:56:13.061Z,33.30
2019-03-30T15:58:39.987Z,42.63
2019-03-30T16:01:07.247Z,39.10
2019-03-30T16:03:34.426Z,44.90
2019-03-30T16:06:01.413Z,43.40
2019-03-30T16:08:29.567Z,81.63
2019-03-30T16:10:56.605Z,45.43
2019-03-30T16:13:24.027Z,45.13
2019-03-30T16:15:51.310Z,48.33
2019-03-30T16:18:18.411Z,33.97
2019-03-30T16:20:45.909Z,43.83
2019-03-30T16:23:13.060Z,45.23
2019-03-30T16:25:40.058Z,38.70
2019-03-30T16:28:07.292Z,36.53
2019-03-30T16:30:34.782Z,65.47
2019-03-30T16:33:01.998Z,65.73
2019-03-30T16:35:29.065Z,55.13
2019-03-30T16:37:56.058Z,51.17
2019-03-30T16:40:23.023Z,45.23
2019-03-30T16:42:50.734Z,47.10
2019-03-30T16:45:17.612Z,63.63
2019-03-30T16:47:44.671Z,96.83
2019-03-30T16:50:14.585Z,47.90
2019-03-30T16:52:41.570Z,47.60
2019-03-30T16:55:09.031Z,62.60
2019-03-30T16:57:43.305Z,51.90
2019-03-30T17:00:10.040Z,43.77
2019-03-30T17:02:37.407Z,37.03
2019-03-30T17:05:06.495Z,31.77
2019-03-30T17:07:33.618Z,34.30
2019-03-30T17:10:00.593Z,33.40
2019-03-30T17:12:27.682Z,36.63
2019-03-30T17:14:54.579Z,36.13
2019-03-30T17:17:21.607Z,30.30
2019-03-30T17:19:48.597Z,37.73
2019-03-30T17:22:15.483Z,40.47
2019-03-30T17:24:42.393Z,36.87
2019-03-30T17:27:09.811Z,42.30
2019-03-30T17:29:36.957Z,38.30
2019-03-30T17:32:04.118Z,47.23
2019-03-30T17:34:31.192Z,52.07
2019-03-30T17:36:58.058Z,47.90
2019-03-30T17:39:25.043Z,50.17
2019-03-30T17:41:51.907Z,58.27
2019-03-30T17:44:19.209Z,53.87
2019-03-30T17:46:46.612Z,58.90
2019-03-30T17:49:13.558Z,60.13
2019-03-30T17:51:40.638Z,60.07
2019-03-30T17:54:07.630Z,62.60
2019-03-30T17:56:34.741Z,71.87
2019-03-30T17:59:01.958Z,75.37
2019-03-30T18:01:29.186Z,80.40
2019-03-30T18:03:56.067Z,76.43
2019-03-30T18:06:24.042Z,75.40
2019-03-30T18:08:51.541Z,69.20
2019-03-30T18:11:18.480Z,69.75
2019-03-30T18:13:45.489Z,68.03
2019-03-30T18:16:12.423Z,69.93
2019-03-30T18:18:39.496Z,64.17
2019-03-30T18:21:06.523Z,67.03
2019-03-30T18:23:33.155Z,72.67
2019-03-30T18:25:59.899Z,64.67
2019-03-30T18:28:27.533Z,64.10
2019-03-30T18:30:54.561Z,61.00
2019-03-30T18:33:23.508Z,60.13
2019-03-30T18:35:51.183Z,55.03
2019-03-30T18:38:18.798Z,61.13
2019-03-30T18:40:46.183Z,58.33
2019-03-30T18:43:13.097Z,55.73
2019-03-30T18:45:39.667Z,48.77
2019-03-30T18:48:12.622Z,55.43
2019-03-30T18:50:40.794Z,47.13
2019-03-30T18:53:08.246Z,48.57
2019-03-30T18:55:34.966Z,58.53
2019-03-30T18:58:01.825Z,57.27
2019-03-30T19:00:29.750Z,57.80
2019-03-30T19:03:00.059Z,55.37
2019-03-30T19:05:26.885Z,67.07
2019-03-30T19:07:53.644Z,81.43
2019-03-30T19:10:21.646Z,86.40
2019-03-30T19:12:48.515Z,93.73
2019-03-30T19:15:15.379Z,109.77
2019-03-30T19:17:42.045Z,106.97
2019-03-30T19:20:09.186Z,104.77
2019-03-30T19:22:35.820Z,119.10
2019-03-30T19:25:06.694Z,118.37
2019-03-30T19:27:34.681Z,123.30
2019-03-30T19:30:03.536Z,121.87
2019-03-30T19:32:30.981Z,114.27
2019-03-30T19:34:57.837Z,112.37
2019-03-30T19:37:24.847Z,106.07
2019-03-30T19:39:52.132Z,114.17
2019-03-30T19:42:18.967Z,123.23
2019-03-30T19:44:46.478Z,123.50
2019-03-30T19:47:13.784Z,115.20
2019-03-30T19:49:41.178Z,111.50
2019-03-30T19:52:08.554Z,110.90
2019-03-30T19:54:35.471Z,107.83
2019-03-30T19:57:02.425Z,94.17
2019-03-30T19:59:29.726Z,95.63
2019-03-30T20:01:59.017Z,101.73
2019-03-30T20:04:26.159Z,95.23
2019-03-30T20:06:53.905Z,115.87
2019-03-30T20:09:21.312Z,100.70
2019-03-30T20:11:48.509Z,111.70
2019-03-30T20:14:15.622Z,106.40
2019-03-30T20:16:43.673Z,113.77
2019-03-30T20:19:12.469Z,110.83
2019-03-30T20:21:39.727Z,120.67
2019-03-30T20:24:06.690Z,122.83
2019-03-30T20:26:33.733Z,125.67
2019-03-30T20:29:00.552Z,128.43
2019-03-30T20:31:27.236Z,140.07
2019-03-30T20:33:53.810Z,138.17
2019-03-30T20:36:20.813Z,144.77
2019-03-30T20:38:47.654Z,131.50
2019-03-30T20:41:14.647Z,132.00
2019-03-30T20:43:41.408Z,130.70
2019-03-30T20:46:07.958Z,138.13
2019-03-30T20:48:35.849Z,132.27
2019-03-30T20:51:02.482Z,143.40
2019-03-30T20:53:29.294Z,130.40
2019-03-30T20:55:56.331Z,128.50
2019-03-30T20:58:22.986Z,137.37
2019-03-30T21:00:49.833Z,126.10
2019-03-30T21:03:16.496Z,130.83
2019-03-30T21:05:43.121Z,129.00
2019-03-30T21:08:10.490Z,124.53
2019-03-30T21:10:37.181Z,128.97
2019-03-30T21:13:04.118Z,136.67
2019-03-30T21:15:30.779Z,131.87
2019-03-30T21:17:57.684Z,119.63
2019-03-30T21:20:24.355Z,127.30
2019-03-30T21:22:50.946Z,127.30
2019-03-30T21:25:17.696Z,121.70
2019-03-30T21:27:44.347Z,136.63
2019-03-30T21:30:12.309Z,121.80
2019-03-30T21:32:39.212Z,125.90
2019-03-30T21:35:06.442Z,146.43
2019-03-30T21:37:33.328Z,123.63
2019-03-30T21:39:59.971Z,137.00
2019-03-30T21:42:27.889Z,135.27
2019-03-30T21:44:54.661Z,131.53
2019-03-30T21:47:21.257Z,133.67
2019-03-30T21:49:48.200Z,141.17
2019-03-30T21:52:14.823Z,139.10
2019-03-30T21:54:43.369Z,141.27
2019-03-30T21:57:09.927Z,143.03
2019-03-30T21:59:36.740Z,132.07
2019-03-30T22:02:03.442Z,132.37
2019-03-30T22:04:31.117Z,136.23
2019-03-30T22:06:57.946Z,126.77
2019-03-30T22:09:25.156Z,133.23
2019-03-30T22:11:51.844Z,147.20
2019-03-30T22:14:18.757Z,156.93
2019-03-30T22:16:46.443Z,142.10
2019-03-30T22:19:13.049Z,148.93
2019-03-30T22:21:39.788Z,140.10
2019-03-30T22:24:06.488Z,141.57
2019-03-30T22:26:33.049Z,139.10
2019-03-30T22:29:00.851Z,143.87
2019-03-30T22:31:29.463Z,147.30
2019-03-30T22:33:56.067Z,150.03
2019-03-30T22:36:22.906Z,149.97
2019-03-30T22:38:49.509Z,169.80
2019-03-30T22:41:16.224Z,187.17
2019-03-30T22:43:43.895Z,184.77
2019-03-30T22:46:11.806Z,184.50
2019-03-30T22:48:38.360Z,157.57
2019-03-30T22:51:04.965Z,166.53
2019-03-30T22:53:31.541Z,157.67
2019-03-30T22:55:58.344Z,148.80
2019-03-30T22:58:25.059Z,153.33
2019-03-30T23:00:57.137Z,144.00
2019-03-30T23:03:24.938Z,140.90
2019-03-30T23:05:51.660Z,138.40
2019-03-30T23:08:18.307Z,138.83
2019-03-30T23:10:44.984Z,138.23
2019-03-30T23:13:13.628Z,138.40
2019-03-30T23:15:40.322Z,146.73
2019-03-30T23:18:06.949Z,136.37
2019-03-30T23:20:33.615Z,124.77
2019-03-30T23:23:00.210Z,127.57
2019-03-30T23:25:26.784Z,148.70
2019-03-30T23:27:53.509Z,137.83
2019-03-30T23:30:20.154Z,137.20
2019-03-30T23:32:46.702Z,124.97
2019-03-30T23:35:16.442Z,130.20
2019-03-30T23:37:43.043Z,125.00
2019-03-30T23:40:09.833Z,125.37
2019-03-30T23:42:36.448Z,129.37
2019-03-30T23:45:04.755Z,122.03
2019-03-30T23:47:32.581Z,120.83
2019-03-30T23:49:59.184Z,121.17
2019-03-30T23:52:25.694Z,135.10
2019-03-30T23:54:52.264Z,121.80
2019-03-30T23:57:18.825Z,120.70
2019-03-30T23:59:45.473Z,132.07
